CheckWX is a tool to help pilots better visualize weather data.  It is not intended as a substitute for an official pre-flight weather briefing.

09:58:20 UTC

CYLU METAR
Kangiqsualujjuaq (Georges River) Airport
Kangiqsualujjuaq, Canada
Current

13 hours ago

CYLU 202100Z 29009KT 13SM FEW012 SCT021 BKN230 M21/M25 A2989 RMK ST1SC2CS3 LAST STFD OBS/NEXT 211200UTC SNW CVR/MEDIUM PACK SLP131
Observed
Mar-20 @ 21:00 UTC
Wind
  • 290° at 9 KTS
Visibility
13 SM
Flight Rules
VFR
Cloud Levels
  • Few at 1,200' AGL
  • Scattered at 2,100' AGL
  • Broken at 23,000' AGL
Temperature
-21°C / -6°F
Dewpoint
-25°C / -13°F
Humidity
70%
Altimeter
29.89" Hg
Pressure
1013.1 hPa
Previous

14 hours ago

CYLU 202000Z 28011G17KT 13SM FEW005 FEW019 SCT250 M20/M25 A2988 RMK SF1SC1CC1 SLP127
Observed
Mar-20 @ 20:00 UTC
Wind
  • 280° at 11 KTS
  • Gusting to 17 KTS
Visibility
13 SM
Flight Rules
VFR
Cloud Levels
  • Few at 500' AGL
  • Few at 1,900' AGL
  • Scattered at 25,000' AGL
Temperature
-20°C / -4°F
Dewpoint
-25°C / -13°F
Humidity
65%
Altimeter
29.88" Hg
Pressure
1012.7 hPa
Previous

15 hours ago

CYLU 201900Z 30013KT 14SM FEW016 SCT018 SCT020 SCT022 M20/M25 A2985 RMK SC1SC2SC1SC1 SC TR SLP119
Observed
Mar-20 @ 19:00 UTC
Wind
  • 300° at 13 KTS
Visibility
14 SM
Flight Rules
VFR
Cloud Levels
  • Few at 1,600' AGL
  • Scattered at 1,800' AGL
  • Scattered at 2,000' AGL
  • Scattered at 2,200' AGL
Temperature
-20°C / -4°F
Dewpoint
-25°C / -13°F
Humidity
65%
Altimeter
29.85" Hg
Pressure
1011.9 hPa